Capitán Aníbal Arab Airport
SLCO : now visible

Airfield :











YOU CAN JOIN US ON...

 
LOGIN :

Register | Disclaimer

   EN    FR    IT 

 









Legend :    VFR   Marginal VFR   IFR   Intensive IFR   Very Intensive IFR
Visi :
Ceiling :
>= 8 km
>= 3000ft
5 to 8 km
1000 to 3000 ft
1500m to 5 km
500 to 1000 ft
800 to 1500m
200 to 500 ft
< 800m
< 200 ft
Symbols :   Thunderstorms  Fog  Heavy snow  Heavy precipitations  Wind > 20 kt






- Airport Elevation : 889 ft
- IATA code : CIJ


SLCO - Capitán Aníbal Arab

CURRENT METAR :
  • 291400Z 00000KT 9999 NSC 26/21 Q1016

EXPIRED METARs :
  • 291300Z 00000KT 9999 NSC 22/19 Q1016
  • 291200Z 00000KT 9999 FEW005 19/18 Q1015

TAF TAF SLCO
Valid from the 29 at 12:00 until the 30 at 12:00 UTC


291000Z 2912/3012 00000KT 9999 NSC TX31/2920Z TN17/3010Z
BECMG 2915/2917 21005KT
BECMG 2919/2921 16007KT FEW025
BECMG 3002/3006 00000KT NSC
SLLF FIR / South America



MET'MAP, your aeronautical weather chart ! - Copyright ORBIFLY December 2007 - Disclaimer

ORBIFLY MET'MAP TEAM :

Programming & Development : Alexandra Zaïnal
Concept & original design : Baudouin d'Aumeries
Assistance for programming : Marc-Olivier Méhu
Technical & hardware support : Manuel Goepfert

Contact : metmap@orbifly.com




SOURCES & CREDITS :

   NOAA       Earth
Advisory